Terminal Aerodrome Forecast
Issued by NWS

Home | Current Version | Previous Version | Text Only | Print | Product List | Glossary On
Versions: 1 2 3 4 5 6 7 8 9 10 11 12 13 14 15 16 17 18 19
332
FTUS41 KPBZ 082320
TAFAGC
TAF
KAGC 082320Z 0900/0924 27015G22KT P6SM -SN OVC035
     FM090900 26012G22KT P6SM OVC025
     FM091900 27012G20KT 6SM -SN OVC025=

USA.gov is the U.S. government's official web portal to all federal, state and local government web resources and services.